Westfield, NC (27053)

3:48 AM EDT on September 05, 2015 (GMT -0400)
Hanging Rock State Park Visitor Center | | Change Station
CLOSE
Current Station
Personal Weather Station
Location: Danbury, NC
Elevation: 1683 ft
Nearby Weather Stations

Elev 1683 ft 36.40 °N, 80.27 °W | Updated 3 minutes ago

Partly Cloudy
Partly Cloudy
66.0 °F
Feels Like 66.0 °F
N
0.0
Wind Variable Wind from NW

Today
High -- | Low -- °F
--% Chance of Precip.
Yesterday
High -- | Low -- °F
Precip. -- in
6:55 AM 7:43 PM
Waning Gibbous, 51% visible
Pressure 30.16 in
Visibility 5.0 miles
Clouds Scattered Clouds 4300 ft
Dew Point 66 °F
Humidity 99%
Rainfall 0.00 in
Snow Depth Not available.
UV 0 out of 12
Pollen 8.90 out of 12
Air Quality Not available.
Flu Activity Not available.
METAR KMWK 050735Z AUTO 06004KT 5SM BR SCT043 19/18 A3016 RMK AO2 T01910180
Pressure 30.16 in
Visibility 5.0 miles
Clouds Scattered Clouds 4300 ft
Dew Point 66 °F
Humidity 99%
Rainfall 0.00 in
Snow Depth Not available.
UV 0 out of 12
Pollen 8.90 out of 12
Air Quality Not available.
Flu Activity Not available.
METAR KMWK 050735Z AUTO 06004KT 5SM BR SCT043 19/18 A3016 RMK AO2 T01910180

10-Day Weather Forecast

×

Almanac

Astronomy

Sep. 05, 2015 Rise Set
Actual Time
Civil Twilight
Nautical Twilight
Astronomical Twilight
Moon
Length of Visible Light
Length of Day
Tomorrow will be .
, % of the Moon is Illuminated

Today's Extremes

State Highs State Lows

Community

WunderPhotos

Upload Photos

1,852,437 photos uploaded!

WunderBlogs® & News

Nearby

Air Quality

  Air Quality AQ Index Pollutant
Not available.

Snow Depth

Station Depth Elevation

Earthquake Activity

City Distance Mag. Time & Date
Minimum magnitude displayed is 2.5.

Coastal Water Temperatures

Place Temperature

Stations

Nearby Weather Stations

Station Location Temp. Windchill Dew Point Humidity Wind Precip. Elev Updated Type